Time;durP1;ratioP1;P1;durP2;ratioP2;P2;SDS_P1;SDS_P2;PMS_P1;PMS_P2;Temp;Humidity;BMP_temperature;BMP_pressure;BME280_temperature;BME280_humidity;BME280_pressure;Samples;Min_cycle;Max_cycle;Signal;HPM_P1;HPM_P2
2022/12/01 00:01:07;;;;;;;61.98;37.20;;;;;;;2.76;74.80;102906.85;1798625;78;21368;-85
2022/12/01 00:03:34;;;;;;;63.73;37.70;;;;;;;2.76;74.88;102902.02;1738625;79;21030;-78
2022/12/01 00:06:03;;;;;;;68.55;39.70;;;;;;;2.78;74.92;102908.27;1787599;78;21750;-85
2022/12/01 00:08:30;;;;;;;70.17;39.55;;;;;;;2.78;74.94;102902.70;1788249;78;20979;-85
2022/12/01 00:11:05;;;;;;;69.07;38.92;;;;;;;2.79;74.95;102903.61;1777248;80;21012;-85
2022/12/01 00:13:33;;;;;;;62.30;38.50;;;;;;;2.78;74.92;102903.06;1784936;78;21007;-78
2022/12/01 00:16:13;;;;;;;56.80;35.80;;;;;;;2.74;74.86;102903.20;1788271;78;20971;-85
2022/12/01 00:18:40;;;;;;;56.80;35.13;;;;;;;2.70;74.87;102902.01;1777463;80;22861;-78
2022/12/01 00:21:15;;;;;;;54.33;33.98;;;;;;;2.72;74.96;102904.36;1780410;78;21050;-78
2022/12/01 00:23:48;;;;;;;60.08;33.65;;;;;;;2.75;75.09;102902.41;1777308;78;21050;-85
2022/12/01 00:26:16;;;;;;;58.58;34.10;;;;;;;2.79;75.06;102904.91;1777417;78;21094;-85
2022/12/01 00:28:43;;;;;;;56.37;33.83;;;;;;;2.82;75.10;102906.50;1778741;80;21051;-79
2022/12/01 00:31:11;;;;;;;60.67;37.35;;;;;;;2.82;75.08;102899.60;1785040;78;21750;-85
2022/12/01 00:33:38;;;;;;;60.40;35.13;;;;;;;2.86;75.10;102903.00;1775941;78;21050;-78
2022/12/01 00:36:06;;;;;;;57.98;35.20;;;;;;;2.87;75.03;102906.14;1786965;78;21059;-78
2022/12/01 00:38:33;;;;;;;58.78;36.60;;;;;;;2.89;75.04;102906.25;1777552;80;21044;-77
2022/12/01 00:40:59;;;;;;;58.50;36.68;;;;;;;2.89;74.99;102905.89;1797143;78;21040;-78
2022/12/01 00:43:26;;;;;;;61.20;36.10;;;;;;;2.91;75.06;102900.83;1787448;78;22449;-78
2022/12/01 00:45:55;;;;;;;59.27;36.58;;;;;;;2.92;75.03;102893.53;1783225;78;21066;-85
2022/12/01 00:48:21;;;;;;;56.42;35.92;;;;;;;2.91;75.00;102893.03;1787536;78;21069;-85
2022/12/01 00:50:50;;;;;;;56.83;35.45;;;;;;;2.90;74.97;102895.09;1782086;78;21078;-85
2022/12/01 00:53:17;;;;;;;53.78;33.67;;;;;;;2.90;75.01;102893.78;1719861;80;21302;-78
2022/12/01 00:55:45;;;;;;;53.28;33.02;;;;;;;2.91;74.99;102887.83;1782809;80;21695;-86
2022/12/01 00:58:12;;;;;;;49.13;30.57;;;;;;;2.90;75.00;102890.79;1780841;78;21109;-77
2022/12/01 01:00:38;;;;;;;50.83;31.50;;;;;;;2.91;74.94;102889.12;1777876;78;21495;-76
2022/12/01 01:03:06;;;;;;;51.25;30.35;;;;;;;2.91;74.99;102887.43;1785801;78;21007;-77
2022/12/01 01:05:38;;;;;;;49.75;32.20;;;;;;;2.92;74.93;102890.54;1782982;78;21042;-77
2022/12/01 01:08:09;;;;;;;44.50;29.77;;;;;;;2.92;74.93;102889.63;1758146;78;23011;-84
2022/12/01 01:10:40;;;;;;;47.98;30.82;;;;;;;2.95;74.93;102889.92;1796035;78;21236;-85
2022/12/01 01:13:07;;;;;;;47.50;30.90;;;;;;;2.96;74.94;102890.83;1788431;78;21347;-77
2022/12/01 01:15:33;;;;;;;48.98;30.45;;;;;;;2.97;74.98;102897.48;1788394;78;21113;-79
2022/12/01 01:18:00;;;;;;;45.65;29.18;;;;;;;3.00;75.03;102896.42;1787977;78;21048;-78
2022/12/01 01:20:27;;;;;;;47.13;28.92;;;;;;;3.02;75.06;102892.31;1783111;80;22487;-85
2022/12/01 01:22:54;;;;;;;46.45;29.63;;;;;;;3.05;75.01;102889.95;1789313;78;21693;-78
2022/12/01 01:25:21;;;;;;;44.35;28.70;;;;;;;3.05;74.91;102886.45;1787691;78;21046;-78
2022/12/01 01:27:48;;;;;;;41.28;27.87;;;;;;;3.04;74.84;102892.05;1783958;78;21695;-86
2022/12/01 01:30:15;;;;;;;45.35;27.20;;;;;;;3.00;74.75;102889.92;1787013;78;21054;-85
2022/12/01 01:32:42;;;;;;;46.45;28.77;;;;;;;3.00;74.82;102894.22;1784928;79;21681;-86
2022/12/01 01:35:09;;;;;;;44.60;28.62;;;;;;;3.03;74.92;102897.11;1783202;78;20991;-85
2022/12/01 01:37:35;;;;;;;45.60;28.95;;;;;;;3.04;74.88;102893.36;1794177;78;20970;-85
2022/12/01 01:40:03;;;;;;;40.73;25.90;;;;;;;3.07;74.83;102895.30;1783596;78;20979;-79
2022/12/01 01:42:30;;;;;;;43.45;28.27;;;;;;;3.05;74.76;102895.16;1792618;78;21818;-86
2022/12/01 01:44:57;;;;;;;45.88;28.75;;;;;;;3.06;74.69;102889.20;1783074;78;21793;-79
2022/12/01 01:47:31;;;;;;;46.50;30.25;;;;;;;3.07;74.75;102887.10;1789084;78;20987;-81
2022/12/01 01:50:04;;;;;;;;;;;;;;;3.09;74.74;102888.55;1790448;78;20956;-85
2022/12/01 01:52:28;;;;;;;41.35;25.92;;;;;;;3.08;74.74;102887.64;1787042;78;20841;-86
2022/12/01 01:54:55;;;;;;;42.53;26.50;;;;;;;3.06;74.67;102894.41;1783396;78;20991;-86
2022/12/01 01:57:30;;;;;;;41.73;26.70;;;;;;;3.05;74.71;102887.36;1795784;78;21188;-79
2022/12/01 02:00:08;;;;;;;40.10;25.57;;;;;;;3.07;74.76;102886.20;1784448;78;20952;-85
2022/12/01 02:02:39;;;;;;;45.80;26.73;;;;;;;3.05;74.67;102885.16;1778684;78;21908;-78
2022/12/01 02:05:09;;;;;;;34.58;24.57;;;;;;;3.04;74.72;102884.61;1762720;80;21055;-79
2022/12/01 02:07:33;;;;;;;35.28;23.92;;;;;;;3.05;74.80;102883.45;1716771;81;21000;-79
2022/12/01 02:10:00;;;;;;;34.63;23.38;;;;;;;3.08;74.76;102882.84;1741895;81;21774;-79
2022/12/01 02:12:41;;;;;;;36.65;25.02;;;;;;;3.07;74.66;102894.91;1708333;82;21428;-85
2022/12/01 02:15:31;;;;;;;37.55;24.40;;;;;;;3.06;74.73;102893.47;1735848;80;20915;-86
2022/12/01 02:18:27;;;;;;;31.50;22.02;;;;;;;3.08;74.69;102886.34;1733616;81;20975;-86
2022/12/01 02:21:17;;;;;;;33.08;22.67;;;;;;;3.03;74.62;102890.21;1724064;81;21064;-78
2022/12/01 02:23:55;;;;;;;30.77;22.32;;;;;;;3.05;74.74;102892.95;1712049;83;21819;-85
2022/12/01 02:26:54;;;;;;;33.88;22.22;;;;;;;3.07;74.74;102887.50;1716784;82;21032;-85
2022/12/01 02:29:54;;;;;;;33.25;22.07;;;;;;;3.06;74.71;102888.26;1744954;81;21050;-85
2022/12/01 02:32:29;;;;;;;32.58;21.27;;;;;;;3.05;74.69;102882.16;1727908;81;21532;-79
2022/12/01 02:35:13;;;;;;;34.73;22.45;;;;;;;3.04;74.71;102879.41;1730225;82;21555;-86
2022/12/01 02:38:06;;;;;;;36.65;23.07;;;;;;;3.03;74.82;102882.80;1721364;82;21888;-78
2022/12/01 02:40:47;;;;;;;32.30;22.63;;;;;;;3.05;74.82;102887.75;1722085;82;21024;-78
2022/12/01 02:43:38;;;;;;;31.05;20.92;;;;;;;3.02;74.79;102884.50;1700022;82;20968;-85
2022/12/01 02:46:35;;;;;;;34.20;21.42;;;;;;;3.02;74.84;102882.27;1725424;82;20983;-84
2022/12/01 02:49:08;;;;;;;31.05;20.37;;;;;;;3.02;74.85;102880.59;1722140;82;21079;-85
2022/12/01 02:51:34;;;;;;;31.00;22.07;;;;;;;3.01;74.83;102881.76;1726552;82;23014;-84
2022/12/01 02:54:01;;;;;;;28.75;19.98;;;;;;;3.00;74.83;102883.42;1715263;81;20986;-78
2022/12/01 02:56:28;;;;;;;32.28;20.72;;;;;;;3.00;74.76;102879.91;1710966;83;20997;-78
2022/12/01 02:58:55;;;;;;;27.70;19.37;;;;;;;2.99;74.82;102880.31;1731193;81;21008;-78
2022/12/01 03:01:43;;;;;;;28.17;18.75;;;;;;;3.01;74.86;102883.05;1730580;80;20988;-78
2022/12/01 03:04:18;;;;;;;30.37;19.65;;;;;;;2.98;74.80;102883.67;1749499;79;21789;-85
2022/12/01 03:07:02;;;;;;;29.90;19.77;;;;;;;3.00;74.84;102878.22;1754806;79;21011;-87
2022/12/01 03:09:49;;;;;;;30.92;20.02;;;;;;;3.01;74.85;102882.66;1750562;80;21584;-78
2022/12/01 03:12:36;;;;;;;28.23;18.95;;;;;;;3.02;74.85;102877.06;1765932;79;21007;-85
2022/12/01 03:15:20;;;;;;;23.22;17.98;;;;;;;3.00;74.82;102876.91;1763494;79;20989;-78
2022/12/01 03:17:59;;;;;;;25.70;18.32;;;;;;;2.99;74.77;102876.80;1785946;78;21739;-77
2022/12/01 03:20:43;;;;;;;26.25;18.62;;;;;;;3.00;74.84;102882.52;1787315;78;20959;-77
2022/12/01 03:23:17;;;;;;;23.67;17.37;;;;;;;2.98;74.69;102878.87;1782119;78;20999;-77
2022/12/01 03:25:46;;;;;;;22.25;17.10;;;;;;;2.96;74.71;102880.02;1783460;79;21377;-78
2022/12/01 03:28:14;;;;;;;23.60;16.77;;;;;;;2.98;74.62;102885.37;1784780;78;21035;-79
2022/12/01 03:30:41;;;;;;;24.72;18.35;;;;;;;2.95;74.59;102879.52;1781507;78;21905;-78
2022/12/01 03:33:11;;;;;;;21.93;16.73;;;;;;;2.96;74.66;102871.31;1785457;78;21002;-78
2022/12/01 03:35:46;;;;;;;26.50;16.73;;;;;;;2.98;74.69;102869.77;1776674;78;20972;-85
2022/12/01 03:38:20;;;;;;;23.15;16.85;;;;;;;3.01;74.70;102875.25;1792796;78;21004;-85
2022/12/01 03:40:48;;;;;;;22.42;17.00;;;;;;;3.01;74.63;102874.86;1782269;78;21022;-77
2022/12/01 03:43:18;;;;;;;21.45;16.70;;;;;;;3.01;74.60;102872.65;1794322;78;22542;-85
2022/12/01 03:46:11;;;;;;;21.07;16.45;;;;;;;3.00;74.49;102863.00;1782957;80;20964;-85
2022/12/01 03:48:38;;;;;;;25.32;16.82;;;;;;;2.98;74.32;102873.27;1793047;78;20963;-86
2022/12/01 03:51:19;;;;;;;20.80;16.62;;;;;;;2.91;74.34;102858.81;1786401;78;21459;-86
2022/12/01 03:54:11;;;;;;;19.92;15.70;;;;;;;2.99;74.33;102869.00;1776978;78;21156;-86
2022/12/01 03:56:43;;;;;;;21.85;16.07;;;;;;;2.98;74.28;102868.46;1780023;78;21733;-85
2022/12/01 03:59:10;;;;;;;22.40;16.70;;;;;;;3.00;74.31;102866.51;1784662;78;21889;-85
2022/12/01 04:01:36;;;;;;;22.27;17.27;;;;;;;3.03;74.33;102863.29;1782477;78;21741;-77
2022/12/01 04:04:07;;;;;;;23.35;16.50;;;;;;;3.04;74.31;102864.73;1782244;78;21075;-78
2022/12/01 04:06:33;;;;;;;22.52;16.37;;;;;;;3.05;74.31;102860.44;1783147;78;21034;-77
2022/12/01 04:09:00;;;;;;;22.65;16.95;;;;;;;3.05;74.30;102864.34;1782496;78;21895;-85
2022/12/01 04:14:12;;;;;;;21.68;17.32;;;;;;;3.01;74.27;102874.86;1790562;78;21270;-86
2022/12/01 04:16:39;;;;;;;20.52;16.32;;;;;;;3.01;74.30;102865.75;1778794;80;21047;-85
2022/12/01 04:19:05;;;;;;;20.75;15.85;;;;;;;3.03;74.38;102868.49;1783256;78;21650;-77
2022/12/01 04:21:32;;;;;;;22.00;16.17;;;;;;;3.01;74.34;102863.15;1784933;78;21778;-78
2022/12/01 04:23:59;;;;;;;20.62;15.55;;;;;;;3.00;74.28;102870.81;1778929;78;21055;-78
2022/12/01 04:26:30;;;;;;;19.52;14.60;;;;;;;2.99;74.24;102871.60;1782681;80;21037;-85
2022/12/01 04:29:00;;;;;;;19.73;15.35;;;;;;;2.91;74.12;102870.52;1758242;80;21107;-78
2022/12/01 04:31:26;;;;;;;19.52;15.10;;;;;;;2.88;74.09;102867.63;1723696;81;21071;-85
2022/12/01 04:33:57;;;;;;;18.30;13.50;;;;;;;2.87;74.23;102867.13;1783709;78;22552;-86
2022/12/01 04:36:24;;;;;;;18.57;14.68;;;;;;;2.88;74.27;102883.23;1787457;78;21019;-85
2022/12/01 04:38:51;;;;;;;19.67;14.83;;;;;;;2.87;74.27;102878.83;1759909;79;20985;-85
2022/12/01 04:41:18;;;;;;;21.12;15.45;;;;;;;2.87;74.32;102874.92;1748415;79;20982;-85
2022/12/01 04:43:44;;;;;;;19.82;15.53;;;;;;;2.87;74.40;102879.19;1744198;81;20959;-79
2022/12/01 04:46:11;;;;;;;20.30;15.88;;;;;;;2.85;74.34;102880.38;1754152;79;21752;-78
2022/12/01 04:48:38;;;;;;;18.23;14.68;;;;;;;2.85;74.45;102882.98;1762365;79;21018;-78
2022/12/01 04:51:06;;;;;;;23.27;15.93;;;;;;;2.85;74.38;102879.08;1781639;78;20964;-78
2022/12/01 04:53:33;;;;;;;24.52;16.00;;;;;;;2.84;74.35;102882.44;1749300;78;21418;-78
2022/12/01 04:56:00;;;;;;;19.62;15.23;;;;;;;2.79;74.35;102882.41;1786066;78;21045;-77
2022/12/01 04:58:30;;;;;;;21.02;16.62;;;;;;;2.79;74.46;102883.70;1744880;80;40542;-76
2022/12/01 05:01:06;;;;;;;22.58;15.70;;;;;;;2.77;74.36;102883.05;1781716;78;21019;-76
2022/12/01 05:03:40;;;;;;;21.20;16.32;;;;;;;2.77;74.38;102889.55;1783613;78;20968;-76
2022/12/01 05:06:14;;;;;;;;;;;;;;;2.76;74.32;102880.84;1785351;78;20990;-84
2022/12/01 05:08:41;;;;;;;20.72;15.70;;;;;;;2.79;74.29;102888.00;1777335;78;20342;-78
2022/12/01 05:11:10;;;;;;;20.90;16.55;;;;;;;2.81;74.28;102888.66;1792522;78;21766;-77
2022/12/01 05:13:40;;;;;;;19.62;15.85;;;;;;;2.83;74.25;102881.91;1748733;78;20998;-84
2022/12/01 05:16:13;;;;;;;24.05;17.00;;;;;;;2.85;74.18;102887.25;1785351;78;21012;-85
2022/12/01 05:18:41;;;;;;;22.45;16.50;;;;;;;2.85;74.15;102891.15;1785705;80;21023;-77
2022/12/01 05:21:09;;;;;;;21.00;16.50;;;;;;;2.80;74.02;102893.34;1753183;80;21008;-82
2022/12/01 05:23:36;;;;;;;20.48;17.02;;;;;;;2.81;74.03;102889.05;1763373;79;21767;-81
2022/12/01 05:26:04;;;;;;;22.93;18.05;;;;;;;2.78;73.93;102888.40;1727787;81;20972;-81
2022/12/01 05:28:31;;;;;;;21.95;17.32;;;;;;;2.76;73.94;102893.85;1729059;81;21007;-81
2022/12/01 05:30:58;;;;;;;21.52;17.10;;;;;;;2.74;73.90;102894.10;1762199;80;21019;-76
2022/12/01 05:33:28;;;;;;;23.42;17.17;;;;;;;2.73;73.91;102894.47;1766509;79;21011;-82
2022/12/01 05:35:55;;;;;;;22.60;16.85;;;;;;;2.74;73.98;102894.10;1764387;80;21372;-79
2022/12/01 05:38:22;;;;;;;19.77;14.80;;;;;;;2.75;73.94;102895.00;1755973;79;20973;-80
2022/12/01 05:40:51;;;;;;;20.52;15.35;;;;;;;2.76;73.90;102894.22;1750701;79;21330;-78
2022/12/01 05:43:19;;;;;;;19.32;14.60;;;;;;;2.78;73.85;102892.66;1779068;78;20998;-80
2022/12/01 05:45:46;;;;;;;18.42;14.70;;;;;;;2.83;73.89;102903.10;1784747;78;21007;-80
2022/12/01 05:48:19;;;;;;;20.08;14.53;;;;;;;2.83;73.74;102901.41;1790269;78;23090;-89
2022/12/01 05:50:45;;;;;;;19.67;13.85;;;;;;;2.83;73.67;102903.10;1807109;78;21088;-89
2022/12/01 05:53:12;;;;;;;18.27;13.80;;;;;;;2.82;73.60;102904.80;1777708;78;21081;-80
2022/12/01 05:55:39;;;;;;;20.57;14.23;;;;;;;2.82;73.59;102906.10;1781818;80;21058;-80
2022/12/01 05:58:06;;;;;;;17.73;14.38;;;;;;;2.80;73.55;102910.65;1780046;78;21050;-81
2022/12/01 06:00:33;;;;;;;17.07;13.90;;;;;;;2.79;73.54;102912.31;1783264;78;21745;-80
2022/12/01 06:02:59;;;;;;;20.75;15.25;;;;;;;2.77;73.55;102912.56;1783475;78;21033;-84
2022/12/01 06:05:26;;;;;;;18.42;14.53;;;;;;;2.74;73.54;102909.70;1784561;78;21449;-81
2022/12/01 06:07:53;;;;;;;22.17;15.48;;;;;;;2.71;73.54;102917.22;1783197;78;21132;-83
2022/12/01 06:10:20;;;;;;;23.18;17.32;;;;;;;2.71;73.63;102923.72;1785997;78;21042;-80
2022/12/01 06:12:46;;;;;;;24.05;15.05;;;;;;;2.71;73.69;102920.72;1789190;78;21889;-81
2022/12/01 06:15:13;;;;;;;18.05;15.13;;;;;;;2.71;73.67;102923.72;1773772;78;21090;-81
2022/12/01 06:17:40;;;;;;;18.60;13.70;;;;;;;2.72;73.83;102919.02;1789887;78;21050;-87
2022/12/01 06:20:08;;;;;;;19.62;13.38;;;;;;;2.77;73.79;102920.77;1791137;78;21633;-88
2022/12/01 06:22:34;;;;;;;19.55;14.65;;;;;;;2.80;73.81;102925.86;1726864;80;21070;-81
2022/12/01 06:25:02;;;;;;;21.07;15.75;;;;;;;2.83;73.82;102928.72;1784570;78;21717;-83
2022/12/01 06:27:29;;;;;;;22.95;16.62;;;;;;;2.81;73.74;102926.37;1787255;78;21039;-86
2022/12/01 06:29:55;;;;;;;23.20;17.32;;;;;;;2.81;73.75;102929.36;1780402;78;21408;-80
2022/12/01 06:32:22;;;;;;;25.37;18.65;;;;;;;2.81;73.74;102925.06;1781704;78;21626;-85
2022/12/01 06:34:52;;;;;;;30.05;20.50;;;;;;;2.80;73.61;102927.16;1782760;80;21112;-85
2022/12/01 06:37:18;;;;;;;28.57;20.62;;;;;;;2.75;73.53;102922.31;1782882;80;22582;-86
2022/12/01 06:39:45;;;;;;;26.07;20.20;;;;;;;2.71;73.48;102927.22;1781849;80;21956;-81
2022/12/01 06:42:12;;;;;;;28.67;20.17;;;;;;;2.68;73.43;102924.72;1780592;80;21034;-81
2022/12/01 06:44:39;;;;;;;24.27;19.95;;;;;;;2.67;73.44;102931.62;1780712;80;21053;-86
2022/12/01 06:47:07;;;;;;;24.52;17.73;;;;;;;2.66;73.43;102933.67;1782557;80;21046;-82
2022/12/01 06:49:37;;;;;;;21.07;16.93;;;;;;;2.67;73.35;102932.02;1778533;78;23092;-81
2022/12/01 06:52:04;;;;;;;23.83;16.90;;;;;;;2.67;73.31;102938.52;1782316;80;21297;-81
2022/12/01 06:54:31;;;;;;;22.50;16.62;;;;;;;2.67;73.31;102935.52;1782343;80;21015;-85
2022/12/01 06:56:58;;;;;;;23.67;17.92;;;;;;;2.68;73.29;102939.02;1782557;80;21025;-81
2022/12/01 06:59:24;;;;;;;34.90;21.70;;;;;;;2.70;73.32;102937.48;1781161;80;21069;-81
2022/12/01 07:01:51;;;;;;;41.92;25.62;;;;;;;2.70;73.31;102935.81;1752902;80;21740;-86
2022/12/01 07:04:18;;;;;;;46.48;28.07;;;;;;;2.72;73.35;102936.86;1783978;79;21562;-85
2022/12/01 07:06:45;;;;;;;36.58;24.95;;;;;;;2.74;73.33;102937.02;1784385;80;21082;-86
2022/12/01 07:09:12;;;;;;;31.75;22.82;;;;;;;2.73;73.31;102941.27;1784402;80;21532;-82
2022/12/01 07:11:39;;;;;;;26.68;19.77;;;;;;;2.74;73.34;102944.81;1782156;80;21058;-81
2022/12/01 07:14:05;;;;;;;26.95;20.12;;;;;;;2.75;73.32;102943.12;1783074;80;21746;-81
2022/12/01 07:16:32;;;;;;;26.33;19.65;;;;;;;2.77;73.32;102938.97;1765242;80;21086;-81
2022/12/01 07:18:59;;;;;;;24.05;18.12;;;;;;;2.77;73.33;102941.56;1745123;81;21111;-81
2022/12/01 07:21:26;;;;;;;22.65;17.92;;;;;;;2.78;73.33;102943.38;1775015;80;21251;-86
2022/12/01 07:23:59;;;;;;;23.15;16.73;;;;;;;2.80;73.33;102944.06;1756710;80;21058;-86
2022/12/01 07:26:24;;;;;;;23.10;17.32;;;;;;;2.84;73.35;102941.36;1769964;80;21765;-86
2022/12/01 07:28:51;;;;;;;26.87;20.08;;;;;;;2.86;73.29;102940.72;1765630;80;21080;-81
2022/12/01 07:31:18;;;;;;;42.27;28.60;;;;;;;2.88;73.35;102939.56;1714863;80;21570;-81
2022/12/01 07:33:46;;;;;;;42.00;26.45;;;;;;;2.90;73.33;102944.12;1754772;80;21072;-81
2022/12/01 07:36:13;;;;;;;61.53;40.50;;;;;;;2.92;73.32;102940.36;1766303;80;21890;-81
2022/12/01 07:38:40;;;;;;;34.85;26.30;;;;;;;2.91;73.36;102935.95;1759140;80;22580;-81
2022/12/01 07:41:12;;;;;;;31.25;22.70;;;;;;;2.91;73.30;102945.05;1758400;80;21066;-81
2022/12/01 07:43:39;;;;;;;25.05;19.60;;;;;;;2.90;73.28;102938.91;1769499;80;21499;-86
2022/12/01 07:46:11;;;;;;;31.30;24.45;;;;;;;2.88;73.22;102940.86;1780293;78;21113;-81
2022/12/01 07:48:38;;;;;;;26.40;20.92;;;;;;;2.88;73.28;102943.46;1764745;80;21049;-81
2022/12/01 07:51:10;;;;;;;24.50;18.95;;;;;;;2.89;73.21;102938.77;1745813;81;22573;-86
2022/12/01 07:53:36;;;;;;;23.38;19.15;;;;;;;2.88;73.12;102944.77;1746990;81;21321;-86
2022/12/01 07:56:04;;;;;;;25.72;20.72;;;;;;;2.86;73.04;102943.31;1755695;80;21035;-86
2022/12/01 07:58:31;;;;;;;24.00;19.70;;;;;;;2.87;73.12;102945.52;1776695;80;21031;-81
2022/12/01 08:00:58;;;;;;;25.25;19.02;;;;;;;2.88;73.14;102944.77;1770206;80;21115;-81
2022/12/01 08:03:24;;;;;;;26.33;20.12;;;;;;;2.94;73.14;102950.91;1769526;80;21771;-85
2022/12/01 08:06:07;;;;;;;31.10;21.07;;;;;;;2.99;73.13;102948.35;1762033;80;21673;-81
2022/12/01 08:08:37;;;;;;;36.80;23.93;;;;;;;3.02;73.05;102949.91;1781411;79;21070;-81
2022/12/01 08:11:20;;;;;;;36.05;23.65;;;;;;;3.05;72.93;102943.69;1783866;80;21919;-86
2022/12/01 08:13:47;;;;;;;;;;;;;;;3.08;73.00;102944.89;1784914;80;21508;-86
2022/12/01 08:16:18;;;;;;;34.83;23.67;;;;;;;3.11;72.82;102946.45;1779776;80;21777;-81
2022/12/01 08:18:45;;;;;;;34.98;22.42;;;;;;;3.11;72.79;102944.23;1781813;80;21085;-81
2022/12/01 08:21:15;;;;;;;33.10;22.20;;;;;;;3.12;72.69;102947.38;1780798;80;21102;-81
2022/12/01 08:23:41;;;;;;;29.95;19.57;;;;;;;3.14;72.67;102947.53;1779933;80;21068;-86
2022/12/01 08:26:12;;;;;;;27.25;18.10;;;;;;;3.17;72.71;102948.69;1779085;80;21085;-81
2022/12/01 08:28:39;;;;;;;27.40;15.23;;;;;;;3.19;72.59;102944.92;1754263;80;21808;-81
2022/12/01 08:31:13;;;;;;;17.87;13.10;;;;;;;3.22;72.53;102949.12;1782212;80;21610;-86
2022/12/01 08:33:39;;;;;;;20.52;14.90;;;;;;;3.21;72.46;102945.97;1781144;79;21031;-85
2022/12/01 08:36:06;;;;;;;19.50;14.47;;;;;;;3.19;72.30;102951.07;1739744;80;21094;-86
2022/12/01 08:38:33;;;;;;;23.77;14.00;;;;;;;3.17;72.22;102954.28;1782054;80;21048;-82
2022/12/01 08:41:02;;;;;;;19.02;14.33;;;;;;;3.18;72.23;102954.83;1780284;80;21756;-86
2022/12/01 08:43:29;;;;;;;20.82;16.12;;;;;;;3.21;72.22;102957.69;1781510;80;21042;-86
2022/12/01 08:45:59;;;;;;;21.80;15.20;;;;;;;3.24;72.19;102961.48;1778897;80;21601;-86
2022/12/01 08:48:28;;;;;;;18.67;13.90;;;;;;;3.24;72.08;102960.18;1780341;80;21058;-81
2022/12/01 08:51:07;;;;;;;19.20;13.22;;;;;;;3.25;72.16;102956.82;1779271;80;21038;-81
2022/12/01 08:53:37;;;;;;;21.05;13.60;;;;;;;3.26;72.08;102957.72;1776631;80;23364;-81
2022/12/01 08:56:23;;;;;;;16.45;12.78;;;;;;;3.22;72.00;102962.13;1779350;80;21059;-83
2022/12/01 08:58:50;;;;;;;17.20;12.88;;;;;;;3.20;72.04;102961.08;1781849;80;21039;-87
2022/12/01 09:01:19;;;;;;;18.27;15.28;;;;;;;3.19;72.08;102955.34;1778301;80;21066;-81
2022/12/01 09:03:45;;;;;;;21.15;15.03;;;;;;;3.20;72.13;102957.18;1778045;79;21264;-86
2022/12/01 09:06:21;;;;;;;21.82;16.42;;;;;;;3.19;72.14;102958.87;1780546;80;21770;-85
2022/12/01 09:08:47;;;;;;;22.48;15.48;;;;;;;3.20;72.15;102955.48;1778606;79;21028;-85
2022/12/01 09:11:17;;;;;;;23.50;16.10;;;;;;;3.18;72.12;102958.34;1771910;80;21031;-85
2022/12/01 09:13:44;;;;;;;21.93;15.48;;;;;;;3.16;72.12;102957.28;1723598;82;21595;-85
2022/12/01 09:16:13;;;;;;;20.68;14.80;;;;;;;3.16;72.07;102952.48;1729549;82;21066;-85
2022/12/01 09:18:40;;;;;;;16.10;12.88;;;;;;;3.14;72.05;102952.34;1729806;82;21774;-85
2022/12/01 09:21:13;;;;;;;16.48;12.53;;;;;;;3.11;71.84;102952.95;1728995;82;21039;-81
2022/12/01 09:23:40;;;;;;;16.30;12.60;;;;;;;3.10;71.93;102947.23;1736106;82;21042;-82
2022/12/01 09:26:07;;;;;;;19.98;13.90;;;;;;;3.10;71.92;102940.73;1735539;82;21529;-86
2022/12/01 09:28:34;;;;;;;19.12;13.85;;;;;;;3.16;72.01;102941.67;1772477;80;21410;-86
2022/12/01 09:31:10;;;;;;;18.10;13.45;;;;;;;3.22;72.02;102939.61;1783717;80;21756;-81
2022/12/01 09:33:37;;;;;;;17.17;12.73;;;;;;;3.28;72.05;102943.16;1779471;80;21079;-80
2022/12/01 09:36:04;;;;;;;14.83;12.37;;;;;;;3.34;71.93;102941.48;1756288;80;22076;-81
2022/12/01 09:38:33;;;;;;;14.53;11.35;;;;;;;3.39;71.91;102935.02;1768818;80;21094;-85
2022/12/01 09:41:03;;;;;;;15.55;12.15;;;;;;;3.39;71.81;102929.41;1771086;80;21110;-85
2022/12/01 09:43:44;;;;;;;19.55;14.85;;;;;;;3.44;71.82;102925.93;1745783;81;22620;-81
2022/12/01 09:46:17;;;;;;;21.48;15.05;;;;;;;3.47;71.65;102928.78;1750267;81;21064;-85
2022/12/01 09:48:47;;;;;;;17.42;14.68;;;;;;;3.53;71.68;102933.25;1763225;80;29539;-80
2022/12/01 09:51:21;;;;;;;19.00;14.07;;;;;;;3.60;71.69;102925.18;1753556;80;21183;-85
2022/12/01 09:53:55;;;;;;;16.20;12.33;;;;;;;3.67;71.67;102922.74;1779621;80;21082;-85
2022/12/01 09:56:28;;;;;;;19.00;13.83;;;;;;;3.81;71.75;102918.72;1779865;80;21746;-85
2022/12/01 09:59:09;;;;;;;14.95;12.25;;;;;;;3.97;71.72;102922.29;1778441;80;21051;-80
2022/12/01 10:01:38;;;;;;;16.15;12.07;;;;;;;4.10;71.65;102921.27;1776159;79;21068;-80
2022/12/01 10:04:13;;;;;;;17.82;13.43;;;;;;;4.17;71.46;102914.50;1761665;80;21192;-80
2022/12/01 10:06:53;;;;;;;19.23;14.25;;;;;;;4.23;71.22;102915.01;1763733;78;21070;-80
2022/12/01 10:09:31;;;;;;;18.45;13.25;;;;;;;4.31;71.20;102909.14;1762112;80;21873;-86
2022/12/01 10:12:13;;;;;;;17.40;13.08;;;;;;;4.43;71.13;102910.20;1775049;80;21086;-88
2022/12/01 10:14:42;;;;;;;20.02;12.58;;;;;;;4.50;70.98;102906.80;1763817;80;21869;-81
2022/12/01 10:17:32;;;;;;;20.52;13.70;;;;;;;4.58;70.94;102911.88;1763744;80;21239;-86
2022/12/01 10:20:22;;;;;;;17.12;13.00;;;;;;;4.62;70.72;102906.53;1768493;80;21054;-86
2022/12/01 10:23:21;;;;;;;21.20;13.88;;;;;;;4.68;70.76;102913.56;1749279;81;21762;-82
2022/12/01 10:25:58;;;;;;;22.55;15.20;;;;;;;4.72;70.52;102907.80;1701291;81;21511;-81
2022/12/01 10:29:11;;;;;;;23.50;15.93;;;;;;;4.61;70.42;102882.52;1733884;81;20975;-86
2022/12/01 10:31:46;;;;;;;20.75;14.07;;;;;;;4.78;70.34;102909.61;1736044;82;21138;-86
2022/12/01 10:34:21;;;;;;;21.42;14.18;;;;;;;4.82;70.22;102909.47;1736033;82;21079;-86
2022/12/01 10:36:47;;;;;;;18.20;13.38;;;;;;;4.84;70.19;102901.37;1726926;82;21816;-86
2022/12/01 10:39:22;;;;;;;18.75;13.10;;;;;;;4.85;69.97;102901.52;1751268;81;21453;-86
2022/12/01 10:41:49;;;;;;;17.45;11.95;;;;;;;4.81;69.92;102901.14;1746108;81;21048;-86
2022/12/01 10:44:16;;;;;;;15.20;11.53;;;;;;;4.80;69.78;102904.13;1750215;81;21119;-86
2022/12/01 10:46:53;;;;;;;14.07;10.25;;;;;;;4.75;69.65;102896.33;1751294;81;21058;-86
2022/12/01 10:49:20;;;;;;;19.70;12.30;;;;;;;4.74;69.60;102897.50;1720393;81;21772;-86
2022/12/01 10:51:56;;;;;;;17.85;11.05;;;;;;;4.73;69.61;102896.60;1723589;81;21042;-86
2022/12/01 10:54:33;;;;;;;19.25;12.35;;;;;;;4.73;69.69;102894.36;1752372;81;21413;-85
2022/12/01 10:57:00;;;;;;;16.67;11.20;;;;;;;4.78;69.75;102887.83;1751056;81;20947;-85
2022/12/01 10:59:39;;;;;;;15.50;11.10;;;;;;;4.76;69.52;102890.31;1737314;82;21102;-85
2022/12/01 11:02:11;;;;;;;19.37;11.10;;;;;;;4.75;69.61;102884.59;1736080;82;21800;-86
2022/12/01 11:04:44;;;;;;;16.17;10.93;;;;;;;4.75;69.46;102881.98;1740994;80;20955;-80
2022/12/01 11:07:24;;;;;;;14.23;10.78;;;;;;;4.74;69.53;102884.45;1762960;81;20968;-85
2022/12/01 11:10:20;;;;;;;11.50;9.65;;;;;;;4.75;69.58;102890.17;1762895;81;21006;-81
2022/12/01 11:13:23;;;;;;;13.05;8.85;;;;;;;4.76;69.46;102886.40;1766920;81;21567;-81
2022/12/01 11:15:54;;;;;;;12.90;9.45;;;;;;;4.76;69.35;102886.40;1765438;81;21303;-80
2022/12/01 11:18:30;;;;;;;13.58;9.70;;;;;;;4.74;69.12;102887.97;1764389;81;21031;-81
2022/12/01 11:21:26;;;;;;;12.10;8.35;;;;;;;4.72;69.07;102889.55;1711032;82;21058;-80
2022/12/01 11:23:54;;;;;;;13.85;9.73;;;;;;;4.71;68.94;102891.65;1724940;82;20987;-80
2022/12/01 11:26:31;;;;;;;10.18;8.60;;;;;;;4.67;68.86;102885.27;1730244;82;21017;-80
2022/12/01 11:29:00;;;;;;;9.88;7.47;;;;;;;4.67;68.70;102885.62;1726469;82;21754;-80
2022/12/01 11:31:51;;;;;;;8.78;6.85;;;;;;;4.62;68.49;102886.56;1721124;82;20960;-85
2022/12/01 11:34:25;;;;;;;9.25;6.90;;;;;;;4.61;68.51;102887.73;1783579;79;21037;-85
2022/12/01 11:36:57;;;;;;;10.28;6.83;;;;;;;4.59;68.50;102884.99;1786957;79;21582;-85
2022/12/01 11:39:39;;;;;;;11.48;6.95;;;;;;;4.60;68.48;102882.02;1769459;79;21085;-86
2022/12/01 11:42:28;;;;;;;8.83;6.87;;;;;;;4.58;68.37;102880.95;1784960;79;23346;-80